Time;durP1;ratioP1;P1;durP2;ratioP2;P2;SDS_P1;SDS_P2;PMS_P1;PMS_P2;Temp;Humidity;BMP_temperature;BMP_pressure;BME280_temperature;BME280_humidity;BME280_pressure;Samples;Min_cycle;Max_cycle;Signal;HPM_P1;HPM_P2
2022/05/06 00:00:02;;;;;;;4.67;3.17;;;10.00;99.90;;;;;;4960004;29;20218;-79
2022/05/06 00:02:29;;;;;;;5.07;3.30;;;10.00;99.90;;;;;;4960523;28;20226;-79
2022/05/06 00:04:55;;;;;;;9.13;3.40;;;10.00;99.90;;;;;;4959861;29;20309;-79
2022/05/06 00:07:24;;;;;;;4.23;3.50;;;10.00;99.90;;;;;;4959629;29;20285;-79
2022/05/06 00:09:51;;;;;;;6.60;3.33;;;10.20;99.90;;;;;;4960814;28;20277;-79
2022/05/06 00:12:19;;;;;;;6.30;3.27;;;10.00;99.90;;;;;;4960199;28;20714;-79
2022/05/06 00:14:46;;;;;;;4.83;3.73;;;10.10;99.90;;;;;;4960924;28;20230;-79
2022/05/06 00:17:14;;;;;;;3.77;3.30;;;9.90;99.90;;;;;;4960462;28;20214;-79
2022/05/06 00:19:42;;;;;;;5.60;3.33;;;9.80;99.90;;;;;;4960135;29;20237;-79
2022/05/06 00:22:10;;;;;;;4.27;3.60;;;9.80;99.90;;;;;;4960615;29;20582;-79
2022/05/06 00:24:40;;;;;;;6.83;3.80;;;9.80;99.90;;;;;;4960421;29;20249;-79
2022/05/06 00:27:07;;;;;;;6.40;3.80;;;9.60;99.90;;;;;;4959605;29;20253;-79
2022/05/06 00:29:34;;;;;;;6.30;3.60;;;9.30;99.90;;;;;;4960191;28;20213;-79
2022/05/06 00:32:02;;;;;;;4.87;3.50;;;9.50;99.90;;;;;;4960095;29;20579;-79
2022/05/06 00:34:29;;;;;;;6.87;3.77;;;9.30;99.90;;;;;;4960044;29;20214;-79
2022/05/06 00:36:56;;;;;;;5.67;3.37;;;9.10;99.90;;;;;;4960118;28;20232;-79
2022/05/06 00:39:23;;;;;;;3.97;3.23;;;9.10;99.90;;;;;;4959431;29;20206;-79
2022/05/06 00:41:53;;;;;;;5.27;3.67;;;9.00;99.90;;;;;;4959691;29;20206;-79
2022/05/06 00:44:20;;;;;;;4.93;3.67;;;9.00;99.90;;;;;;4959522;29;20242;-79
2022/05/06 00:46:47;;;;;;;5.53;3.70;;;8.80;99.90;;;;;;4959410;28;20203;-79
2022/05/06 00:49:14;;;;;;;3.90;3.20;;;8.80;99.90;;;;;;4958141;29;20213;-79
2022/05/06 00:51:44;;;;;;;4.80;3.10;;;8.80;99.90;;;;;;4959280;29;20210;-79
2022/05/06 00:54:11;;;;;;;4.20;3.37;;;8.70;99.90;;;;;;4958311;29;20206;-79
2022/05/06 00:56:39;;;;;;;4.77;3.57;;;8.70;99.90;;;;;;4957764;28;20238;-79
2022/05/06 00:59:07;;;;;;;4.30;3.30;;;8.60;99.90;;;;;;4957297;29;20791;-79
2022/05/06 01:01:35;;;;;;;3.77;3.20;;;8.70;99.90;;;;;;4957972;29;20679;-79
2022/05/06 01:04:06;;;;;;;7.53;3.87;;;8.60;99.90;;;;;;4957337;29;20212;-79
2022/05/06 01:06:34;;;;;;;8.53;3.77;;;8.70;99.90;;;;;;4957603;29;20222;-79
2022/05/06 01:09:01;;;;;;;5.43;3.53;;;8.50;99.90;;;;;;4957639;28;20563;-79
2022/05/06 01:11:29;;;;;;;6.33;3.70;;;8.60;99.90;;;;;;4957953;28;20708;-79
2022/05/06 01:13:56;;;;;;;5.77;3.90;;;8.60;99.90;;;;;;4957782;28;20218;-79
2022/05/06 01:16:24;;;;;;;5.37;3.67;;;8.70;99.90;;;;;;4957666;29;20226;-79
2022/05/06 01:18:52;;;;;;;4.63;3.73;;;8.90;99.90;;;;;;4957768;28;20281;-79
2022/05/06 01:21:24;;;;;;;6.37;3.73;;;8.90;99.90;;;;;;4958145;28;20204;-79
2022/05/06 01:23:53;;;;;;;5.67;3.73;;;8.90;99.90;;;;;;4957877;29;20232;-79
2022/05/06 01:26:19;;;;;;;4.77;4.07;;;8.70;99.90;;;;;;4957368;29;20289;-79
2022/05/06 01:28:46;;;;;;;5.47;3.83;;;8.80;99.90;;;;;;4957364;29;20265;-79
2022/05/06 01:31:22;;;;;;;5.77;3.67;;;8.90;99.90;;;;;;4958154;29;20210;-79
2022/05/06 01:33:54;;;;;;;5.30;4.20;;;8.70;99.90;;;;;;4957487;29;20213;-79
2022/05/06 01:36:25;;;;;;;10.47;4.77;;;8.50;99.90;;;;;;4957427;29;20281;-79
2022/05/06 01:38:59;;;;;;;8.33;4.37;;;8.70;99.90;;;;;;4957203;29;20578;-80
2022/05/06 01:41:28;;;;;;;11.00;4.93;;;8.70;99.90;;;;;;4957813;29;20743;-79
2022/05/06 01:44:01;;;;;;;6.60;4.07;;;8.80;99.90;;;;;;4957046;29;20309;-79
2022/05/06 01:46:30;;;;;;;6.03;3.77;;;8.80;99.90;;;;;;4958022;29;20228;-79
2022/05/06 01:48:58;;;;;;;7.73;4.30;;;8.60;99.90;;;;;;4957718;28;20202;-79
2022/05/06 01:51:27;;;;;;;7.40;4.40;;;8.50;99.90;;;;;;4962050;29;20242;-79
2022/05/06 01:53:55;;;;;;;6.90;4.10;;;8.60;99.90;;;;;;4962037;28;20300;-79
2022/05/06 01:56:23;;;;;;;5.87;3.93;;;8.50;99.90;;;;;;4961233;29;20242;-79
2022/05/06 01:58:50;;;;;;;7.20;4.50;;;8.40;99.90;;;;;;4961795;29;20237;-80
2022/05/06 02:01:17;;;;;;;7.60;4.43;;;8.20;99.90;;;;;;4962065;29;20285;-79
2022/05/06 02:06:29;;;;;;;6.03;4.03;;;8.20;99.90;;;;;;4961028;29;20221;-79
2022/05/06 02:08:57;;;;;;;8.07;4.63;;;8.30;99.90;;;;;;4961415;29;20202;-79
2022/05/06 02:11:24;;;;;;;7.47;4.30;;;8.20;7.40;;;;;;4960953;29;20293;-79
2022/05/06 02:13:51;;;;;;;6.87;4.47;;;8.20;45.70;;;;;;4961985;28;20612;-79
2022/05/06 02:16:18;;;;;;;5.77;4.57;;;8.20;83.30;;;;;;4960333;29;20576;-79
2022/05/06 02:18:44;;;;;;;5.20;4.20;;;8.20;71.70;;;;;;4960734;28;20293;-79
2022/05/06 02:21:11;;;;;;;8.73;4.17;;;8.20;52.40;;;;;;4960310;29;20219;-79
2022/05/06 02:23:38;;;;;;;7.80;4.20;;;8.10;1.00;;;;;;4960991;28;20238;-79
2022/05/06 02:26:06;;;;;;;7.50;4.17;;;7.90;1.00;;;;;;4960265;28;20242;-79
2022/05/06 02:28:33;;;;;;;6.77;4.83;;;7.90;1.00;;;;;;4960110;29;20202;-79
2022/05/06 02:33:44;;;;;;;6.57;4.63;;;8.10;59.90;;;;;;4959753;29;20704;-79
2022/05/06 02:36:12;;;;;;;5.30;4.20;;;7.90;66.70;;;;;;4958630;28;20236;-79
2022/05/06 02:38:39;;;;;;;9.97;4.87;;;8.00;98.30;;;;;;4958554;28;20210;-79
2022/05/06 02:41:07;;;;;;;7.67;4.50;;;8.10;16.30;;;;;;4957833;29;20703;-79
2022/05/06 02:43:34;;;;;;;7.30;4.30;;;8.00;1.00;;;;;;4958370;29;20268;-79
2022/05/06 02:46:00;;;;;;;6.57;4.50;;;7.90;1.00;;;;;;4957972;28;20234;-79
2022/05/06 02:48:27;;;;;;;8.37;4.63;;;7.70;1.00;;;;;;4957807;28;20296;-79
2022/05/06 02:50:54;;;;;;;6.27;4.30;;;7.70;1.00;;;;;;4956712;28;20206;-79
2022/05/06 02:53:22;;;;;;;8.27;4.03;;;7.90;1.00;;;;;;4956712;29;20242;-79
2022/05/06 02:55:48;;;;;;;6.90;4.40;;;8.00;1.00;;;;;;4955899;28;20225;-79
2022/05/06 02:58:17;;;;;;;6.40;3.87;;;8.10;1.00;;;;;;4956462;28;20583;-79
2022/05/06 03:00:44;;;;;;;5.30;3.90;;;8.00;1.00;;;;;;4960759;28;20249;-79
2022/05/06 03:03:11;;;;;;;7.53;4.90;;;8.00;1.00;;;;;;4960771;28;20198;-79
2022/05/06 03:05:37;;;;;;;6.07;4.10;;;7.90;1.00;;;;;;4960538;28;20727;-79
2022/05/06 03:08:05;;;;;;;9.30;4.33;;;7.90;1.00;;;;;;4960747;29;20206;-79
2022/05/06 03:10:32;;;;;;;10.70;3.70;;;7.80;1.00;;;;;;4960776;29;20241;-79
2022/05/06 03:12:59;;;;;;;6.47;3.23;;;7.70;1.00;;;;;;4961007;28;20294;-79
2022/05/06 03:15:27;;;;;;;7.87;4.10;;;7.60;1.00;;;;;;4961126;28;20236;-79
2022/05/06 03:17:56;;;;;;;6.70;3.40;;;7.40;1.00;;;;;;4961248;28;20285;-79
2022/05/06 03:20:23;;;;;;;5.20;3.80;;;7.20;1.00;;;;;;4960865;29;20277;-79
2022/05/06 03:22:50;;;;;;;7.60;4.13;;;7.30;1.00;;;;;;4960137;28;20214;-79
2022/05/06 03:25:19;;;;;;;6.47;4.00;;;7.40;1.00;;;;;;4960295;29;20233;-79
2022/05/06 03:28:02;;;;;;;5.87;4.10;;;7.30;1.00;;;;;;4959826;29;20214;-79
2022/05/06 03:30:37;;;;;;;5.63;4.23;;;7.50;1.00;;;;;;4960876;29;20206;-79
2022/05/06 03:33:04;;;;;;;6.67;4.30;;;7.60;1.00;;;;;;4960251;29;20205;-79
2022/05/06 03:35:33;;;;;;;6.77;4.23;;;7.60;1.00;;;;;;4959650;28;20241;-79
2022/05/06 03:38:00;;;;;;;4.57;3.90;;;7.60;1.00;;;;;;4959985;29;20300;-79
2022/05/06 03:40:27;;;;;;;6.30;4.00;;;7.60;1.00;;;;;;4960321;29;20305;-79
2022/05/06 03:42:54;;;;;;;8.87;4.40;;;7.60;1.00;;;;;;4959603;28;20281;-78
2022/05/06 03:45:21;;;;;;;6.20;4.00;;;7.40;1.00;;;;;;4960537;28;20309;-79
2022/05/06 03:47:49;;;;;;;6.23;4.07;;;7.60;1.00;;;;;;4959501;29;20274;-78
2022/05/06 03:53:00;;;;;;;6.40;4.20;;;7.60;1.00;;;;;;4958400;29;20285;-78
2022/05/06 03:55:27;;;;;;;5.33;3.80;;;7.70;1.00;;;;;;4959374;29;20238;-78
2022/05/06 03:57:54;;;;;;;6.20;3.97;;;7.80;1.00;;;;;;4958406;28;20202;-79
2022/05/06 04:00:21;;;;;;;6.57;4.77;;;8.10;1.00;;;;;;4958589;29;20229;-79
2022/05/06 04:02:49;;;;;;;5.50;3.97;;;8.20;1.00;;;;;;4957942;28;20206;-79
2022/05/06 04:05:16;;;;;;;7.37;4.10;;;8.60;1.00;;;;;;4958718;28;20230;-78
2022/05/06 04:07:43;;;;;;;6.03;4.47;;;8.80;1.00;;;;;;4958868;29;20212;-79
2022/05/06 04:10:10;;;;;;;5.93;4.00;;;9.10;1.00;;;;;;4958330;28;20234;-79
2022/05/06 04:12:37;;;;;;;4.77;3.97;;;9.20;1.00;;;;;;4957713;28;20218;-79
2022/05/06 04:15:06;;;;;;;11.17;4.50;;;9.40;1.00;;;;;;4958563;29;20713;-79
2022/05/06 04:17:33;;;;;;;5.80;4.40;;;9.10;1.00;;;;;;4958455;29;20222;-79
2022/05/06 04:25:30;;;;;;;8.40;4.33;;;9.60;99.90;;;;;;4958745;29;20585;-79
2022/05/06 04:27:57;;;;;;;6.47;3.77;;;9.70;1.00;;;;;;4958500;29;20210;-79
2022/05/06 04:30:24;;;;;;;7.90;4.10;;;9.70;1.00;;;;;;4959733;29;20237;-79
2022/05/06 04:32:50;;;;;;;5.67;3.80;;;9.40;1.00;;;;;;4959233;28;20317;-79
2022/05/06 04:35:19;;;;;;;6.67;4.40;;;9.40;1.00;;;;;;4959021;29;20226;-79
2022/05/06 04:37:46;;;;;;;5.60;4.17;;;9.70;2.40;;;;;;4958577;28;20234;-79
2022/05/06 04:40:13;;;;;;;7.00;3.97;;;10.30;99.90;;;;;;4957890;29;20210;-79
2022/05/06 04:42:40;;;;;;;5.87;3.60;;;10.30;1.00;;;;;;4958792;29;20586;-79
2022/05/06 04:45:08;;;;;;;5.83;4.30;;;10.40;1.00;;;;;;4959622;28;20229;-79
2022/05/06 04:47:37;;;;;;;7.80;3.83;;;10.40;1.00;;;;;;4958733;28;20661;-79
2022/05/06 04:50:05;;;;;;;5.10;3.70;;;10.60;1.00;;;;;;4959110;29;20217;-79
2022/05/06 04:52:33;;;;;;;6.23;4.30;;;11.20;1.00;;;;;;4959259;29;20624;-79
2022/05/06 04:55:00;;;;;;;6.97;3.70;;;11.00;1.00;;;;;;4958756;28;20673;-79
2022/05/06 04:57:27;;;;;;;9.60;3.63;;;11.00;1.00;;;;;;4959061;28;20763;-79
2022/05/06 04:59:54;;;;;;;9.10;4.30;;;11.80;1.00;;;;;;4959188;29;20210;-79
2022/05/06 05:02:21;;;;;;;8.73;3.97;;;11.40;99.00;;;;;;4959299;29;20210;-79
2022/05/06 05:04:52;;;;;;;8.87;4.67;;;11.60;98.60;;;;;;4958634;28;20237;-79
2022/05/06 05:07:19;;;;;;;8.13;3.80;;;11.60;97.10;;;;;;4959007;29;20266;-79
2022/05/06 05:09:47;;;;;;;10.90;4.30;;;11.80;97.00;;;;;;4959233;28;20199;-78
2022/05/06 05:12:14;;;;;;;9.57;3.90;;;12.30;95.50;;;;;;4960020;28;20665;-79
2022/05/06 05:14:42;;;;;;;10.70;4.13;;;12.30;92.20;;;;;;4960050;29;20297;-79
2022/05/06 05:17:09;;;;;;;7.47;4.23;;;12.60;89.60;;;;;;4959108;29;20697;-79
2022/05/06 05:19:36;;;;;;;8.43;3.93;;;12.40;91.60;;;;;;4959102;28;20365;-78
2022/05/06 05:22:03;;;;;;;6.13;3.60;;;12.10;92.70;;;;;;4959531;29;20214;-79
2022/05/06 05:24:30;;;;;;;7.17;3.60;;;12.80;89.30;;;;;;4958473;29;20589;-79
2022/05/06 05:26:59;;;;;;;7.13;3.90;;;12.60;85.90;;;;;;4958882;29;20285;-79
2022/05/06 05:29:26;;;;;;;5.00;4.10;;;13.50;79.80;;;;;;4959047;29;20206;-79
2022/05/06 05:31:53;;;;;;;8.87;3.43;;;13.30;75.40;;;;;;4959234;28;20213;-79
2022/05/06 05:34:20;;;;;;;8.37;4.00;;;13.00;75.90;;;;;;4959166;29;20233;-78
2022/05/06 05:36:46;;;;;;;7.17;3.90;;;12.20;90.00;;;;;;4959533;29;20313;-79
2022/05/06 05:39:13;;;;;;;4.57;3.87;;;12.10;94.70;;;;;;4959177;29;20221;-79
2022/05/06 05:41:40;;;;;;;4.87;3.40;;;11.80;97.80;;;;;;4959833;29;20289;-78
2022/05/06 05:49:37;;;;;;;5.47;3.63;;;11.90;99.90;;;;;;4958166;29;20585;-78
2022/05/06 05:52:05;;;;;;;4.97;4.13;;;12.20;99.90;;;;;;4958642;28;20233;-79
2022/05/06 05:54:32;;;;;;;8.50;4.20;;;12.50;99.10;;;;;;4957858;29;20202;-78
2022/05/06 05:56:59;;;;;;;6.17;4.00;;;12.50;99.40;;;;;;4957522;29;20700;-78
2022/05/06 05:59:27;;;;;;;4.63;3.87;;;11.90;99.90;;;;;;4956386;29;20218;-78
2022/05/06 06:01:54;;;;;;;7.47;4.60;;;11.80;99.90;;;;;;4956396;29;20296;-78
2022/05/06 06:04:21;;;;;;;9.13;4.83;;;11.70;99.90;;;;;;4955602;29;20293;-78
2022/05/06 06:06:49;;;;;;;7.97;4.80;;;11.90;99.90;;;;;;4955959;29;20267;-78
2022/05/06 06:09:17;;;;;;;7.00;4.60;;;12.10;99.90;;;;;;4955775;29;20214;-78
2022/05/06 06:11:44;;;;;;;8.03;4.27;;;12.40;99.90;;;;;;4956241;28;20297;-79
2022/05/06 06:14:11;;;;;;;6.83;4.63;;;12.60;99.90;;;;;;4955560;28;20203;-78
2022/05/06 06:16:39;;;;;;;5.80;4.87;;;13.40;99.90;;;;;;4954856;28;20236;-78
2022/05/06 06:19:06;;;;;;;8.83;4.57;;;14.00;93.80;;;;;;4954149;28;20585;-79
2022/05/06 06:21:33;;;;;;;6.23;4.47;;;14.10;93.20;;;;;;4953370;29;20202;-79
2022/05/06 06:24:00;;;;;;;5.57;4.20;;;13.90;92.50;;;;;;4953552;29;20241;-79
2022/05/06 06:26:27;;;;;;;7.37;4.23;;;14.30;91.30;;;;;;4955590;29;20274;-78
2022/05/06 06:28:54;;;;;;;6.67;4.03;;;14.10;90.30;;;;;;4958370;29;20213;-79
2022/05/06 06:31:21;;;;;;;8.37;4.73;;;13.70;94.10;;;;;;4958657;28;20206;-78
2022/05/06 06:33:49;;;;;;;8.10;4.63;;;13.50;97.20;;;;;;4959199;29;20646;-79
2022/05/06 06:36:17;;;;;;;7.20;4.93;;;13.30;99.90;;;;;;4959282;28;20227;-79
2022/05/06 06:38:44;;;;;;;4.87;4.37;;;13.40;99.90;;;;;;4962101;28;20294;-78
2022/05/06 06:41:10;;;;;;;6.90;4.50;;;14.60;94.40;;;;;;4961582;29;20198;-78
2022/05/06 06:43:37;;;;;;;5.67;4.47;;;14.40;90.70;;;;;;4961569;29;20309;-78
2022/05/06 06:46:06;;;;;;;9.93;4.83;;;13.90;93.60;;;;;;4962793;29;20756;-79
2022/05/06 06:48:33;;;;;;;6.87;4.67;;;13.90;95.00;;;;;;4961135;28;20203;-79
2022/05/06 06:51:01;;;;;;;11.13;5.47;;;14.40;88.90;;;;;;4959689;29;20292;-78
2022/05/06 06:53:28;;;;;;;8.30;5.00;;;15.40;80.70;;;;;;4960949;29;20635;-79
2022/05/06 06:55:56;;;;;;;8.97;5.47;;;15.20;78.80;;;;;;4960901;29;20748;-79
2022/05/06 06:58:25;;;;;;;10.60;4.90;;;15.30;76.50;;;;;;4961336;29;20321;-78
2022/05/06 07:00:52;;;;;;;7.30;5.50;;;15.50;73.10;;;;;;4960106;29;20210;-78
2022/05/06 07:03:19;;;;;;;6.47;4.60;;;15.60;72.30;;;;;;4960823;28;20238;-78
2022/05/06 07:13:56;;;;;;;8.90;5.57;;;15.90;62.00;;;;;;4960866;29;20221;-78
2022/05/06 07:16:23;;;;;;;8.10;4.85;;;15.60;61.40;;;;;;4961408;29;20309;-79
2022/05/06 07:18:50;;;;;;;7.03;4.60;;;15.50;63.60;;;;;;4961485;29;20218;-79
2022/05/06 07:21:17;;;;;;;8.97;5.10;;;16.00;59.90;;;;;;4962175;29;20198;-79
2022/05/06 07:23:45;;;;;;;8.07;4.90;;;15.80;60.40;;;;;;4961906;29;20629;-79
2022/05/06 07:26:13;;;;;;;10.37;4.53;;;15.70;59.80;;;;;;4962043;28;20286;-79
2022/05/06 07:28:40;;;;;;;5.97;4.23;;;15.40;62.00;;;;;;4961509;29;20395;-79
2022/05/06 07:31:06;;;;;;;9.03;4.83;;;15.60;59.90;;;;;;4962242;28;20226;-79
2022/05/06 07:33:33;;;;;;;8.23;5.10;;;15.60;59.50;;;;;;4961349;29;20282;-79
2022/05/06 07:36:00;;;;;;;7.45;4.22;;;15.70;64.00;;;;;;4961226;29;20265;-79
2022/05/06 07:38:27;;;;;;;6.77;4.67;;;15.60;63.00;;;;;;4961791;28;20401;-79
2022/05/06 07:40:55;;;;;;;11.13;5.15;;;15.40;65.90;;;;;;4960771;29;20269;-79
2022/05/06 07:43:22;;;;;;;10.53;4.70;;;15.60;65.40;;;;;;4960139;28;20228;-79
2022/05/06 07:45:49;;;;;;;9.57;5.30;;;15.50;64.50;;;;;;4961110;29;20234;-78
2022/05/06 07:48:16;;;;;;;8.57;4.83;;;15.40;58.50;;;;;;4960701;28;20293;-79
2022/05/06 07:50:44;;;;;;;6.23;4.87;;;15.60;59.30;;;;;;4960816;28;20294;-79
2022/05/06 07:53:11;;;;;;;7.70;4.80;;;15.80;57.50;;;;;;4960780;29;20202;-78
2022/05/06 07:55:38;;;;;;;7.23;4.80;;;15.90;57.80;;;;;;4960359;29;20228;-79
2022/05/06 07:58:07;;;;;;;10.27;5.13;;;15.90;55.40;;;;;;4961248;29;20313;-79
2022/05/06 08:00:34;;;;;;;9.90;4.90;;;15.90;55.50;;;;;;4961779;29;20245;-78
2022/05/06 08:05:47;;;;;;;8.33;4.60;;;15.90;50.60;;;;;;4960449;29;20217;-79
2022/05/06 08:08:14;;;;;;;7.17;4.30;;;16.10;50.10;;;;;;4960411;28;20207;-79
2022/05/06 08:10:41;;;;;;;6.88;3.72;;;16.20;51.70;;;;;;4960749;28;20297;-79
2022/05/06 08:13:09;;;;;;;9.23;3.80;;;16.30;44.50;;;;;;4960568;29;20664;-79
2022/05/06 08:15:36;;;;;;;4.90;3.73;;;16.10;38.80;;;;;;4959946;29;20242;-79
2022/05/06 08:18:03;;;;;;;12.07;4.10;;;16.20;39.60;;;;;;4959953;29;20260;-78
2022/05/06 08:20:30;;;;;;;7.23;3.43;;;16.30;43.40;;;;;;4959983;29;20282;-79
2022/05/06 08:22:57;;;;;;;10.00;4.07;;;16.50;39.10;;;;;;4960387;28;20206;-79
2022/05/06 08:25:24;;;;;;;4.60;3.20;;;16.70;42.10;;;;;;4959600;28;20313;-79
2022/05/06 08:27:51;;;;;;;8.53;3.50;;;16.60;38.80;;;;;;4960144;29;20226;-79
2022/05/06 08:30:20;;;;;;;9.73;2.90;;;16.50;41.50;;;;;;4960646;29;20245;-79
2022/05/06 08:32:47;;;;;;;3.92;3.25;;;16.70;39.00;;;;;;4960989;29;20230;-78
2022/05/06 08:35:14;;;;;;;6.80;3.03;;;16.70;35.10;;;;;;4960546;29;20253;-78
2022/05/06 08:37:41;;;;;;;5.53;3.25;;;16.60;37.60;;;;;;4960571;29;20258;-79
2022/05/06 08:40:09;;;;;;;7.55;3.33;;;16.90;36.30;;;;;;4960820;29;20289;-79
2022/05/06 08:42:36;;;;;;;5.13;3.07;;;17.10;33.90;;;;;;4960367;29;20228;-79
2022/05/06 08:50:52;;;;;;;4.40;3.08;;;17.50;29.20;;;;;;4959680;29;20204;-79
2022/05/06 08:53:20;;;;;;;5.05;3.50;;;17.60;27.60;;;;;;4960573;29;20590;-79
2022/05/06 08:55:48;;;;;;;5.57;3.40;;;18.30;25.80;;;;;;4959567;29;20715;-78
2022/05/06 08:58:15;;;;;;;6.55;3.80;;;18.60;22.70;;;;;;4959624;28;20226;-79
2022/05/06 09:00:42;;;;;;;7.03;3.80;;;18.60;19.20;;;;;;4959699;28;20752;-79
2022/05/06 09:03:10;;;;;;;4.85;3.47;;;19.10;17.30;;;;;;4960633;28;20233;-79
2022/05/06 09:05:49;;;;;;;8.52;3.33;;;19.40;17.20;;;;;;4959961;28;20261;-79
2022/05/06 09:08:16;;;;;;;6.32;3.25;;;19.80;15.90;;;;;;4961379;29;20216;-79
2022/05/06 09:10:43;;;;;;;7.60;3.60;;;20.30;13.80;;;;;;4961130;28;20206;-79
2022/05/06 09:13:10;;;;;;;6.20;2.83;;;20.50;9.70;;;;;;4959947;28;20281;-79
2022/05/06 09:18:24;;;;;;;4.47;2.88;;;20.70;4.10;;;;;;4959812;29;20244;-79
2022/05/06 09:20:51;;;;;;;6.57;3.17;;;20.80;2.40;;;;;;4958759;29;20254;-79
2022/05/06 09:23:24;;;;;;;7.43;3.80;;;20.90;1.80;;;;;;4958708;28;20737;-79
2022/05/06 09:25:52;;;;;;;5.78;3.55;;;20.60;2.20;;;;;;4958035;28;20238;-79
2022/05/06 09:28:24;;;;;;;5.07;3.40;;;20.40;1.00;;;;;;4957580;28;20657;-79
2022/05/06 09:31:02;;;;;;;6.05;3.38;;;21.00;1.00;;;;;;4957137;28;20202;-79
2022/05/06 09:33:30;;;;;;;8.48;3.60;;;21.40;1.90;;;;;;4956396;29;20294;-79
2022/05/06 09:35:57;;;;;;;8.40;3.55;;;20.80;1.00;;;;;;4956022;29;20661;-79
2022/05/06 09:38:26;;;;;;;6.95;3.78;;;21.40;1.00;;;;;;4956360;29;20260;-79
2022/05/06 09:40:53;;;;;;;5.82;4.15;;;21.70;1.00;;;;;;4955819;29;20246;-79
2022/05/06 09:43:21;;;;;;;4.63;3.50;;;22.00;1.00;;;;;;4955422;28;20222;-79
2022/05/06 09:45:47;;;;;;;6.45;3.75;;;21.90;1.00;;;;;;4954723;28;20230;-79
2022/05/06 09:48:15;;;;;;;5.18;3.65;;;21.10;1.00;;;;;;4953956;28;20297;-79
2022/05/06 09:50:45;;;;;;;6.68;3.67;;;21.80;1.00;;;;;;4953388;28;20293;-79
2022/05/06 09:53:13;;;;;;;6.47;3.80;;;21.50;1.00;;;;;;4958445;28;20726;-80
2022/05/06 09:55:44;;;;;;;4.65;3.13;;;21.90;1.00;;;;;;4960535;29;20312;-79
2022/05/06 09:58:12;;;;;;;4.40;3.50;;;22.20;1.00;;;;;;4959843;29;20230;-79
2022/05/06 10:00:39;;;;;;;4.53;3.47;;;22.00;1.00;;;;;;4958758;28;20274;-79
2022/05/06 10:03:07;;;;;;;5.65;3.80;;;22.30;1.00;;;;;;4958344;29;20210;-79
2022/05/06 10:05:36;;;;;;;5.55;3.75;;;21.50;1.00;;;;;;4958400;29;20240;-79
2022/05/06 10:08:07;;;;;;;6.07;4.05;;;21.90;1.00;;;;;;4959506;29;20213;-79
2022/05/06 10:10:38;;;;;;;7.93;3.60;;;22.00;1.00;;;;;;4958993;28;20233;-79
2022/05/06 10:13:14;;;;;;;5.57;4.07;;;22.80;1.00;;;;;;4962964;29;20210;-79
2022/05/06 10:15:41;;;;;;;6.97;3.60;;;22.80;1.00;;;;;;4961802;29;20324;-79
2022/05/06 10:18:08;;;;;;;5.35;3.95;;;22.30;1.00;;;;;;4962538;29;20226;-79
2022/05/06 10:21:00;;;;;;;5.00;3.50;;;22.80;1.00;;;;;;4962227;29;20233;-79
2022/05/06 10:23:53;;;;;;;5.93;3.88;;;23.40;1.00;;;;;;4962013;29;20202;-79
2022/05/06 10:26:41;;;;;;;5.28;3.50;;;23.20;1.00;;;;;;4964078;29;20230;-79
2022/05/06 10:35:12;;;;;;;3.40;3.10;;;22.90;1.00;;;;;;4962016;29;20225;-80
2022/05/06 10:37:41;;;;;;;3.60;2.90;;;22.60;1.00;;;;;;4962516;29;20219;-79
2022/05/06 10:40:31;;;;;;;6.78;3.17;;;23.50;1.00;;;;;;4963266;28;20203;-79
2022/05/06 10:42:59;;;;;;;4.40;2.70;;;23.60;1.00;;;;;;4961405;28;20220;-79
2022/05/06 10:45:26;;;;;;;5.47;2.97;;;23.50;1.00;;;;;;4963007;29;20282;-79
2022/05/06 10:47:53;;;;;;;6.07;3.05;;;23.20;1.00;;;;;;4964965;28;20206;-80
2022/05/06 10:50:23;;;;;;;7.43;3.42;;;23.40;1.00;;;;;;4963591;28;20221;-79
2022/05/06 10:52:51;;;;;;;4.93;2.90;;;23.30;1.00;;;;;;4963575;29;20238;-79
2022/05/06 10:55:20;;;;;;;4.43;2.70;;;22.80;1.00;;;;;;4962993;29;20597;-79
2022/05/06 10:57:51;;;;;;;4.95;2.45;;;23.50;1.00;;;;;;4963514;28;20207;-79
2022/05/06 11:00:19;;;;;;;5.10;2.97;;;23.70;1.00;;;;;;4963573;28;20237;-80
2022/05/06 11:02:46;;;;;;;4.05;3.25;;;23.80;1.00;;;;;;4963190;28;20301;-79
2022/05/06 11:05:15;;;;;;;6.00;3.15;;;23.40;1.00;;;;;;4963210;28;20309;-79
2022/05/06 11:07:44;;;;;;;4.15;3.05;;;23.30;1.00;;;;;;4960388;28;20210;-79
2022/05/06 11:10:12;;;;;;;3.20;2.80;;;23.80;1.00;;;;;;4961573;29;20427;-79
2022/05/06 11:12:41;;;;;;;4.32;2.65;;;23.70;1.00;;;;;;4961845;29;20297;-79
2022/05/06 11:15:13;;;;;;;4.57;1.80;;;23.90;1.00;;;;;;4962760;28;20226;-79
2022/05/06 11:17:40;;;;;;;4.80;2.50;;;24.30;1.00;;;;;;4963359;29;20206;-79
2022/05/06 11:20:21;;;;;;;5.13;2.50;;;24.40;1.00;;;;;;4962857;28;20234;-79
2022/05/06 11:22:52;;;;;;;2.92;2.30;;;24.20;1.00;;;;;;4960955;28;20229;-79
2022/05/06 11:25:20;;;;;;;5.82;2.60;;;23.70;1.00;;;;;;4962211;29;20760;-80
2022/05/06 11:27:47;;;;;;;3.25;2.40;;;23.60;1.00;;;;;;4960854;28;20212;-79
2022/05/06 11:30:18;;;;;;;3.80;2.63;;;24.00;1.00;;;;;;4962235;29;20218;-79
2022/05/06 11:32:50;;;;;;;2.22;2.03;;;23.00;1.00;;;;;;4961267;29;20214;-80
2022/05/06 11:35:21;;;;;;;2.92;2.55;;;23.80;1.00;;;;;;4961352;29;20234;-80
2022/05/06 11:37:49;;;;;;;4.35;2.42;;;24.00;1.00;;;;;;4960633;29;20300;-79
2022/05/06 11:40:34;;;;;;;5.57;2.10;;;23.30;1.00;;;;;;4961762;29;20591;-79
2022/05/06 11:43:02;;;;;;;4.30;2.40;;;22.10;1.00;;;;;;4959909;29;20241;-79
2022/05/06 11:48:18;;;;;;;3.30;2.25;;;22.40;1.00;;;;;;4960209;29;20205;-80
2022/05/06 11:50:47;;;;;;;3.47;1.90;;;22.60;1.00;;;;;;4959330;29;20202;-79
2022/05/06 11:53:16;;;;;;;4.25;2.58;;;22.20;1.00;;;;;;4959690;29;20206;-79
2022/05/06 11:55:44;;;;;;;2.80;2.60;;;21.80;1.00;;;;;;4960996;28;20257;-79
2022/05/06 11:58:13;;;;;;;4.10;2.50;;;22.60;1.00;;;;;;4959869;29;20233;-79
2022/05/06 12:00:42;;;;;;;4.03;2.42;;;22.50;1.00;;;;;;4959928;29;20210;-79
2022/05/06 12:03:10;;;;;;;2.60;2.08;;;22.70;1.00;;;;;;4959896;29;20265;-79
2022/05/06 12:05:38;;;;;;;2.90;2.20;;;23.70;1.00;;;;;;4961569;28;20245;-79
2022/05/06 12:08:06;;;;;;;3.13;2.42;;;24.20;1.00;;;;;;4960422;29;20233;-79
2022/05/06 12:10:34;;;;;;;4.35;1.80;;;24.10;1.00;;;;;;4960937;29;20244;-79
2022/05/06 12:13:04;;;;;;;4.82;2.05;;;24.20;1.00;;;;;;4960788;29;20198;-79
2022/05/06 12:15:31;;;;;;;4.07;2.20;;;23.40;1.00;;;;;;4960882;29;20258;-79
2022/05/06 12:18:10;;;;;;;2.33;2.15;;;23.60;1.00;;;;;;4960101;29;20198;-79
2022/05/06 12:20:38;;;;;;;3.08;2.20;;;23.80;1.00;;;;;;4959842;29;20652;-79
2022/05/06 12:23:06;;;;;;;2.97;2.38;;;24.10;1.00;;;;;;4960215;28;20269;-79
2022/05/06 12:25:35;;;;;;;3.53;2.22;;;24.00;1.00;;;;;;4959702;29;20261;-79
2022/05/06 12:28:10;;;;;;;4.68;2.25;;;24.10;1.00;;;;;;4960159;28;20206;-79
2022/05/06 12:30:37;;;;;;;3.10;2.15;;;24.50;1.00;;;;;;4959304;29;20209;-79
2022/05/06 12:33:07;;;;;;;4.55;2.08;;;23.40;1.00;;;;;;4958966;28;20230;-79
2022/05/06 12:35:55;;;;;;;2.33;1.90;;;23.90;1.00;;;;;;4958491;29;20250;-79
2022/05/06 12:38:22;;;;;;;2.55;2.00;;;24.40;1.00;;;;;;4958718;29;20222;-79
2022/05/06 12:40:49;;;;;;;5.57;2.35;;;24.30;1.00;;;;;;4958345;28;20215;-79
2022/05/06 12:43:16;;;;;;;2.97;2.15;;;23.70;1.00;;;;;;4958215;29;20229;-79
2022/05/06 12:45:52;;;;;;;2.80;2.30;;;23.70;1.00;;;;;;4957483;28;20226;-79
2022/05/06 12:51:05;;;;;;;6.40;2.83;;;24.30;1.00;;;;;;4957200;29;20202;-79
2022/05/06 12:53:33;;;;;;;3.63;2.20;;;24.10;1.00;;;;;;4957857;29;20225;-79
2022/05/06 12:56:00;;;;;;;3.28;2.30;;;23.50;1.00;;;;;;4956772;29;20226;-79
2022/05/06 12:58:28;;;;;;;5.85;2.67;;;23.20;1.00;;;;;;4956453;29;20234;-79
2022/05/06 13:00:56;;;;;;;2.90;2.40;;;23.40;1.00;;;;;;4955316;28;20206;-79
2022/05/06 13:03:22;;;;;;;2.70;2.22;;;23.80;1.00;;;;;;4955232;28;20658;-79
2022/05/06 13:05:49;;;;;;;4.63;2.30;;;24.00;1.00;;;;;;4955829;29;20701;-79
2022/05/06 13:08:18;;;;;;;7.55;2.50;;;23.90;1.00;;;;;;4955127;29;20203;-78
2022/05/06 13:10:45;;;;;;;2.10;1.95;;;23.60;1.00;;;;;;4954320;28;20206;-79
2022/05/06 13:13:15;;;;;;;3.22;2.20;;;24.20;1.00;;;;;;4954217;28;20704;-79
2022/05/06 13:15:42;;;;;;;2.90;2.00;;;24.00;1.00;;;;;;4954068;28;20234;-79
2022/05/06 13:18:09;;;;;;;5.65;2.40;;;24.40;99.90;;;;;;4959550;29;20640;-79
2022/05/06 13:20:36;;;;;;;3.03;2.60;;;24.40;99.90;;;;;;4958482;29;20268;-79
2022/05/06 13:23:02;;;;;;;3.45;2.28;;;24.70;99.90;;;;;;4959415;29;20293;-79
2022/05/06 13:25:31;;;;;;;8.25;2.45;;;24.10;99.90;;;;;;4957992;29;20254;-79
2022/05/06 13:27:57;;;;;;;2.47;1.77;;;24.40;99.90;;;;;;4959216;29;20613;-79
2022/05/06 13:30:24;;;;;;;4.85;2.45;;;24.60;99.90;;;;;;4959191;29;20295;-79
2022/05/06 13:32:51;;;;;;;4.57;2.67;;;24.50;99.90;;;;;;4958844;29;20212;-79
2022/05/06 13:35:18;;;;;;;4.35;2.30;;;24.20;99.90;;;;;;4959031;29;20230;-79
2022/05/06 13:37:45;;;;;;;3.08;2.10;;;24.10;99.90;;;;;;4958894;28;20646;-79
2022/05/06 13:40:12;;;;;;;3.65;2.45;;;24.40;99.90;;;;;;4959065;28;20250;-79
2022/05/06 13:42:41;;;;;;;2.60;2.40;;;24.10;99.90;;;;;;4957872;29;20245;-79
2022/05/06 13:45:08;;;;;;;3.35;2.00;;;23.80;99.90;;;;;;4959295;28;20746;-79
2022/05/06 13:47:35;;;;;;;3.65;2.13;;;23.40;99.90;;;;;;4961335;29;20194;-79
2022/05/06 13:50:02;;;;;;;5.40;2.03;;;24.40;99.90;;;;;;4961071;28;20630;-79